sensor_id;sensor_type;location;lat;lon;timestamp;temperature;humidity
1806;DHT22;901;48.142;11.516;2023-04-24T00:01:02;11.30;99.90
1806;DHT22;901;48.142;11.516;2023-04-24T00:03:30;11.30;99.90
1806;DHT22;901;48.142;11.516;2023-04-24T00:05:58;11.30;99.90
1806;DHT22;901;48.142;11.516;2023-04-24T00:08:26;11.20;99.90
1806;DHT22;901;48.142;11.516;2023-04-24T00:10:53;11.20;99.90
1806;DHT22;901;48.142;11.516;2023-04-24T00:13:20;11.10;99.90
1806;DHT22;901;48.142;11.516;2023-04-24T00:15:46;11.10;99.90
1806;DHT22;901;48.142;11.516;2023-04-24T00:18:13;11.10;99.90
1806;DHT22;901;48.142;11.516;2023-04-24T00:20:42;11.10;99.90
1806;DHT22;901;48.142;11.516;2023-04-24T00:23:09;11.00;99.90
1806;DHT22;901;48.142;11.516;2023-04-24T00:25:36;11.00;99.90
1806;DHT22;901;48.142;11.516;2023-04-24T00:28:02;11.00;99.90
1806;DHT22;901;48.142;11.516;2023-04-24T00:30:29;11.10;99.90
1806;DHT22;901;48.142;11.516;2023-04-24T00:32:57;11.00;99.90
1806;DHT22;901;48.142;11.516;2023-04-24T00:35:24;11.00;99.90
1806;DHT22;901;48.142;11.516;2023-04-24T00:37:52;10.90;99.90
1806;DHT22;901;48.142;11.516;2023-04-24T00:40:19;10.90;99.90
1806;DHT22;901;48.142;11.516;2023-04-24T00:42:45;10.90;99.90
1806;DHT22;901;48.142;11.516;2023-04-24T00:45:12;10.90;99.90
1806;DHT22;901;48.142;11.516;2023-04-24T00:47:39;10.90;99.90
1806;DHT22;901;48.142;11.516;2023-04-24T00:50:08;10.80;99.90
1806;DHT22;901;48.142;11.516;2023-04-24T00:52:35;10.80;99.90
1806;DHT22;901;48.142;11.516;2023-04-24T00:55:05;10.80;99.90
1806;DHT22;901;48.142;11.516;2023-04-24T00:57:32;10.70;99.90
1806;DHT22;901;48.142;11.516;2023-04-24T00:59:59;10.70;99.90
1806;DHT22;901;48.142;11.516;2023-04-24T01:02:26;10.70;99.90
1806;DHT22;901;48.142;11.516;2023-04-24T01:04:53;10.70;99.90
1806;DHT22;901;48.142;11.516;2023-04-24T01:07:20;10.60;99.90
1806;DHT22;901;48.142;11.516;2023-04-24T01:09:48;10.60;99.90
1806;DHT22;901;48.142;11.516;2023-04-24T01:12:18;10.60;99.90
1806;DHT22;901;48.142;11.516;2023-04-24T01:14:45;10.60;99.90
1806;DHT22;901;48.142;11.516;2023-04-24T01:17:11;10.50;99.90
1806;DHT22;901;48.142;11.516;2023-04-24T01:19:38;10.50;99.90
1806;DHT22;901;48.142;11.516;2023-04-24T01:22:10;10.50;99.90
1806;DHT22;901;48.142;11.516;2023-04-24T01:24:38;10.50;99.90
1806;DHT22;901;48.142;11.516;2023-04-24T01:27:05;10.50;99.90
1806;DHT22;901;48.142;11.516;2023-04-24T01:29:32;10.50;99.90
1806;DHT22;901;48.142;11.516;2023-04-24T01:31:59;10.40;99.90
1806;DHT22;901;48.142;11.516;2023-04-24T01:34:26;10.50;99.90
1806;DHT22;901;48.142;11.516;2023-04-24T01:36:53;10.40;99.90
1806;DHT22;901;48.142;11.516;2023-04-24T01:39:21;10.40;99.90
1806;DHT22;901;48.142;11.516;2023-04-24T01:41:51;10.40;99.90
1806;DHT22;901;48.142;11.516;2023-04-24T01:44:18;10.40;99.90
1806;DHT22;901;48.142;11.516;2023-04-24T01:46:45;10.40;99.90
1806;DHT22;901;48.142;11.516;2023-04-24T01:49:11;10.30;99.90
1806;DHT22;901;48.142;11.516;2023-04-24T01:51:38;10.30;99.90
1806;DHT22;901;48.142;11.516;2023-04-24T01:54:05;10.30;99.90
1806;DHT22;901;48.142;11.516;2023-04-24T01:56:35;10.30;99.90
1806;DHT22;901;48.142;11.516;2023-04-24T01:59:03;10.30;99.90
1806;DHT22;901;48.142;11.516;2023-04-24T02:01:34;10.30;99.90
1806;DHT22;901;48.142;11.516;2023-04-24T02:04:02;10.20;99.90
1806;DHT22;901;48.142;11.516;2023-04-24T02:06:29;10.20;99.90
1806;DHT22;901;48.142;11.516;2023-04-24T02:08:56;10.20;99.90
1806;DHT22;901;48.142;11.516;2023-04-24T02:11:23;10.20;99.90
1806;DHT22;901;48.142;11.516;2023-04-24T02:13:51;10.20;99.90
1806;DHT22;901;48.142;11.516;2023-04-24T02:16:18;10.20;99.90
1806;DHT22;901;48.142;11.516;2023-04-24T02:18:45;10.20;99.90
1806;DHT22;901;48.142;11.516;2023-04-24T02:21:12;10.20;99.90
1806;DHT22;901;48.142;11.516;2023-04-24T02:23:39;10.30;99.90
1806;DHT22;901;48.142;11.516;2023-04-24T02:26:06;10.20;99.90
1806;DHT22;901;48.142;11.516;2023-04-24T02:28:33;10.30;99.90
1806;DHT22;901;48.142;11.516;2023-04-24T02:31:01;10.20;99.90
1806;DHT22;901;48.142;11.516;2023-04-24T02:33:28;10.20;99.90
1806;DHT22;901;48.142;11.516;2023-04-24T02:35:54;10.20;99.90
1806;DHT22;901;48.142;11.516;2023-04-24T02:38:22;10.20;99.90
1806;DHT22;901;48.142;11.516;2023-04-24T02:40:48;10.20;99.90
1806;DHT22;901;48.142;11.516;2023-04-24T02:43:15;10.20;99.90
1806;DHT22;901;48.142;11.516;2023-04-24T02:45:42;10.20;99.90
1806;DHT22;901;48.142;11.516;2023-04-24T02:48:10;10.20;99.90
1806;DHT22;901;48.142;11.516;2023-04-24T02:50:37;10.20;99.90
1806;DHT22;901;48.142;11.516;2023-04-24T02:53:04;10.20;99.90
1806;DHT22;901;48.142;11.516;2023-04-24T02:55:31;10.20;99.90
1806;DHT22;901;48.142;11.516;2023-04-24T02:57:57;10.20;99.90
1806;DHT22;901;48.142;11.516;2023-04-24T03:00:24;10.20;99.90
1806;DHT22;901;48.142;11.516;2023-04-24T03:02:51;10.20;99.90
1806;DHT22;901;48.142;11.516;2023-04-24T03:05:20;10.10;99.90
1806;DHT22;901;48.142;11.516;2023-04-24T03:07:46;10.20;99.90
1806;DHT22;901;48.142;11.516;2023-04-24T03:10:13;10.20;99.90
1806;DHT22;901;48.142;11.516;2023-04-24T03:12:40;10.10;99.90
1806;DHT22;901;48.142;11.516;2023-04-24T03:15:08;10.10;99.90
1806;DHT22;901;48.142;11.516;2023-04-24T03:17:35;10.10;99.90
1806;DHT22;901;48.142;11.516;2023-04-24T03:20:02;10.10;99.90
1806;DHT22;901;48.142;11.516;2023-04-24T03:22:32;10.00;99.90
1806;DHT22;901;48.142;11.516;2023-04-24T03:24:59;10.10;99.90
1806;DHT22;901;48.142;11.516;2023-04-24T03:27:26;10.00;99.90
1806;DHT22;901;48.142;11.516;2023-04-24T03:29:52;10.00;99.90
1806;DHT22;901;48.142;11.516;2023-04-24T03:32:20;10.00;99.90
1806;DHT22;901;48.142;11.516;2023-04-24T03:34:47;10.00;99.90
1806;DHT22;901;48.142;11.516;2023-04-24T03:37:14;10.00;99.90
1806;DHT22;901;48.142;11.516;2023-04-24T03:39:42;10.00;99.90
1806;DHT22;901;48.142;11.516;2023-04-24T03:42:09;10.00;99.90
1806;DHT22;901;48.142;11.516;2023-04-24T03:44:36;10.00;99.90
1806;DHT22;901;48.142;11.516;2023-04-24T03:47:03;10.00;99.90
1806;DHT22;901;48.142;11.516;2023-04-24T03:49:30;10.00;99.90
1806;DHT22;901;48.142;11.516;2023-04-24T03:51:57;10.00;99.90
1806;DHT22;901;48.142;11.516;2023-04-24T03:54:23;10.00;99.90
1806;DHT22;901;48.142;11.516;2023-04-24T03:56:52;10.00;99.90
1806;DHT22;901;48.142;11.516;2023-04-24T03:59:18;10.00;99.90
1806;DHT22;901;48.142;11.516;2023-04-24T04:01:45;10.00;99.90
1806;DHT22;901;48.142;11.516;2023-04-24T04:04:12;10.00;99.90
1806;DHT22;901;48.142;11.516;2023-04-24T04:06:39;10.00;99.90
1806;DHT22;901;48.142;11.516;2023-04-24T04:09:06;9.90;99.90
1806;DHT22;901;48.142;11.516;2023-04-24T04:11:34;9.90;99.90
1806;DHT22;901;48.142;11.516;2023-04-24T04:14:02;9.90;99.90
1806;DHT22;901;48.142;11.516;2023-04-24T04:16:29;9.90;99.90
1806;DHT22;901;48.142;11.516;2023-04-24T04:18:56;9.90;99.90
1806;DHT22;901;48.142;11.516;2023-04-24T04:21:22;9.90;99.90
1806;DHT22;901;48.142;11.516;2023-04-24T04:23:49;9.90;99.90
1806;DHT22;901;48.142;11.516;2023-04-24T04:26:16;9.90;99.90
1806;DHT22;901;48.142;11.516;2023-04-24T04:28:44;9.90;99.90
1806;DHT22;901;48.142;11.516;2023-04-24T04:31:14;10.00;99.90
1806;DHT22;901;48.142;11.516;2023-04-24T04:33:41;9.90;99.90
1806;DHT22;901;48.142;11.516;2023-04-24T04:36:08;9.90;99.90
1806;DHT22;901;48.142;11.516;2023-04-24T04:38:34;9.90;99.90
1806;DHT22;901;48.142;11.516;2023-04-24T04:41:03;9.90;99.90
1806;DHT22;901;48.142;11.516;2023-04-24T04:43:31;9.90;99.90
1806;DHT22;901;48.142;11.516;2023-04-24T04:45:59;10.00;99.90
1806;DHT22;901;48.142;11.516;2023-04-24T04:48:30;9.90;99.90
1806;DHT22;901;48.142;11.516;2023-04-24T04:50:57;9.90;99.90
1806;DHT22;901;48.142;11.516;2023-04-24T04:53:23;9.90;99.90
1806;DHT22;901;48.142;11.516;2023-04-24T04:55:51;9.90;99.90
1806;DHT22;901;48.142;11.516;2023-04-24T04:58:18;10.00;99.90
1806;DHT22;901;48.142;11.516;2023-04-24T05:00:45;10.00;99.90
1806;DHT22;901;48.142;11.516;2023-04-24T05:03:12;10.00;99.90
1806;DHT22;901;48.142;11.516;2023-04-24T05:05:40;10.00;99.90
1806;DHT22;901;48.142;11.516;2023-04-24T05:08:07;10.00;99.90
1806;DHT22;901;48.142;11.516;2023-04-24T05:10:34;10.00;99.90
1806;DHT22;901;48.142;11.516;2023-04-24T05:13:02;10.00;99.90
1806;DHT22;901;48.142;11.516;2023-04-24T05:15:29;10.00;99.90
1806;DHT22;901;48.142;11.516;2023-04-24T05:17:56;10.00;99.90
1806;DHT22;901;48.142;11.516;2023-04-24T05:20:23;10.10;99.90
1806;DHT22;901;48.142;11.516;2023-04-24T05:22:51;10.10;99.90
1806;DHT22;901;48.142;11.516;2023-04-24T05:25:18;10.20;99.90
1806;DHT22;901;48.142;11.516;2023-04-24T05:27:45;10.20;99.90
1806;DHT22;901;48.142;11.516;2023-04-24T05:30:12;10.30;99.90
1806;DHT22;901;48.142;11.516;2023-04-24T05:32:39;10.40;99.90
1806;DHT22;901;48.142;11.516;2023-04-24T05:35:07;10.40;99.90
1806;DHT22;901;48.142;11.516;2023-04-24T05:37:33;10.40;99.90
1806;DHT22;901;48.142;11.516;2023-04-24T05:40:02;10.50;99.90
1806;DHT22;901;48.142;11.516;2023-04-24T05:42:30;10.50;99.90
1806;DHT22;901;48.142;11.516;2023-04-24T05:44:57;10.60;99.90
1806;DHT22;901;48.142;11.516;2023-04-24T05:47:24;10.60;99.90
1806;DHT22;901;48.142;11.516;2023-04-24T05:49:52;10.70;99.90
1806;DHT22;901;48.142;11.516;2023-04-24T05:52:19;10.70;99.90
1806;DHT22;901;48.142;11.516;2023-04-24T05:54:46;10.70;99.90
1806;DHT22;901;48.142;11.516;2023-04-24T05:57:14;10.70;99.90
1806;DHT22;901;48.142;11.516;2023-04-24T05:59:41;10.70;99.90
1806;DHT22;901;48.142;11.516;2023-04-24T06:02:07;10.90;99.90
1806;DHT22;901;48.142;11.516;2023-04-24T06:04:34;10.90;99.90
1806;DHT22;901;48.142;11.516;2023-04-24T06:07:01;11.00;99.90
1806;DHT22;901;48.142;11.516;2023-04-24T06:09:28;11.10;99.90
1806;DHT22;901;48.142;11.516;2023-04-24T06:11:55;11.20;99.90
1806;DHT22;901;48.142;11.516;2023-04-24T06:14:24;11.30;99.90
1806;DHT22;901;48.142;11.516;2023-04-24T06:16:51;11.40;99.90
1806;DHT22;901;48.142;11.516;2023-04-24T06:19:17;11.60;99.90
1806;DHT22;901;48.142;11.516;2023-04-24T06:21:45;11.70;99.90
1806;DHT22;901;48.142;11.516;2023-04-24T06:24:14;11.80;99.90
1806;DHT22;901;48.142;11.516;2023-04-24T06:26:42;11.80;99.90
1806;DHT22;901;48.142;11.516;2023-04-24T06:29:09;11.90;99.90
1806;DHT22;901;48.142;11.516;2023-04-24T06:31:37;12.00;99.90
1806;DHT22;901;48.142;11.516;2023-04-24T06:34:04;12.00;99.90
1806;DHT22;901;48.142;11.516;2023-04-24T06:36:31;12.10;99.90
1806;DHT22;901;48.142;11.516;2023-04-24T06:38:59;12.20;99.90
1806;DHT22;901;48.142;11.516;2023-04-24T06:41:26;12.30;99.90
1806;DHT22;901;48.142;11.516;2023-04-24T06:43:53;12.40;99.90
1806;DHT22;901;48.142;11.516;2023-04-24T06:46:20;12.40;99.90
1806;DHT22;901;48.142;11.516;2023-04-24T06:48:50;12.50;99.90
1806;DHT22;901;48.142;11.516;2023-04-24T06:51:17;12.60;99.90
1806;DHT22;901;48.142;11.516;2023-04-24T06:53:44;12.80;99.90
1806;DHT22;901;48.142;11.516;2023-04-24T06:56:11;13.00;99.90
1806;DHT22;901;48.142;11.516;2023-04-24T06:58:37;13.10;99.90
1806;DHT22;901;48.142;11.516;2023-04-24T07:01:04;13.20;99.90
1806;DHT22;901;48.142;11.516;2023-04-24T07:03:31;13.20;99.90
1806;DHT22;901;48.142;11.516;2023-04-24T07:05:59;13.30;99.90
1806;DHT22;901;48.142;11.516;2023-04-24T07:08:26;13.50;99.90
1806;DHT22;901;48.142;11.516;2023-04-24T07:10:53;13.60;99.90
1806;DHT22;901;48.142;11.516;2023-04-24T07:13:22;13.60;99.90
1806;DHT22;901;48.142;11.516;2023-04-24T07:15:49;13.70;99.90
1806;DHT22;901;48.142;11.516;2023-04-24T07:18:16;13.70;99.90
1806;DHT22;901;48.142;11.516;2023-04-24T07:20:43;13.80;99.90
1806;DHT22;901;48.142;11.516;2023-04-24T07:23:11;13.90;99.90
1806;DHT22;901;48.142;11.516;2023-04-24T07:25:39;14.00;99.90
1806;DHT22;901;48.142;11.516;2023-04-24T07:28:06;13.80;99.90
1806;DHT22;901;48.142;11.516;2023-04-24T07:30:33;13.80;99.90
1806;DHT22;901;48.142;11.516;2023-04-24T07:32:59;13.70;99.90
1806;DHT22;901;48.142;11.516;2023-04-24T07:35:26;13.70;99.90
1806;DHT22;901;48.142;11.516;2023-04-24T07:37:53;13.80;99.90
1806;DHT22;901;48.142;11.516;2023-04-24T07:40:22;13.70;99.90
1806;DHT22;901;48.142;11.516;2023-04-24T07:42:49;13.70;99.90
1806;DHT22;901;48.142;11.516;2023-04-24T07:45:16;13.70;99.90
1806;DHT22;901;48.142;11.516;2023-04-24T07:47:43;13.60;99.90
1806;DHT22;901;48.142;11.516;2023-04-24T07:50:11;13.50;99.90
1806;DHT22;901;48.142;11.516;2023-04-24T07:52:38;13.50;99.90
1806;DHT22;901;48.142;11.516;2023-04-24T07:55:05;13.50;99.90
1806;DHT22;901;48.142;11.516;2023-04-24T07:57:33;13.40;99.90
1806;DHT22;901;48.142;11.516;2023-04-24T08:00:00;13.40;99.90
1806;DHT22;901;48.142;11.516;2023-04-24T08:02:27;13.50;99.90
1806;DHT22;901;48.142;11.516;2023-04-24T08:04:54;13.50;99.90
1806;DHT22;901;48.142;11.516;2023-04-24T08:07:22;13.60;99.90
1806;DHT22;901;48.142;11.516;2023-04-24T08:09:49;13.70;99.90
1806;DHT22;901;48.142;11.516;2023-04-24T08:12:16;13.70;99.90
1806;DHT22;901;48.142;11.516;2023-04-24T08:14:44;13.70;99.90
1806;DHT22;901;48.142;11.516;2023-04-24T08:17:11;13.70;99.90
1806;DHT22;901;48.142;11.516;2023-04-24T08:19:39;13.70;99.90
1806;DHT22;901;48.142;11.516;2023-04-24T08:22:08;13.50;99.90
1806;DHT22;901;48.142;11.516;2023-04-24T08:24:35;13.20;99.90
1806;DHT22;901;48.142;11.516;2023-04-24T08:27:02;13.10;99.90
1806;DHT22;901;48.142;11.516;2023-04-24T08:29:28;12.80;99.90
1806;DHT22;901;48.142;11.516;2023-04-24T08:31:57;12.70;99.90
1806;DHT22;901;48.142;11.516;2023-04-24T08:34:23;12.70;99.90
1806;DHT22;901;48.142;11.516;2023-04-24T08:36:50;12.40;99.90
1806;DHT22;901;48.142;11.516;2023-04-24T08:39:17;12.00;99.90
1806;DHT22;901;48.142;11.516;2023-04-24T08:41:44;11.50;99.90
1806;DHT22;901;48.142;11.516;2023-04-24T08:44:12;11.60;99.90
1806;DHT22;901;48.142;11.516;2023-04-24T08:46:43;11.80;99.90
1806;DHT22;901;48.142;11.516;2023-04-24T08:49:12;11.80;99.90
1806;DHT22;901;48.142;11.516;2023-04-24T08:51:39;12.00;99.90
1806;DHT22;901;48.142;11.516;2023-04-24T08:54:06;11.90;99.90
1806;DHT22;901;48.142;11.516;2023-04-24T08:56:34;12.00;99.90
1806;DHT22;901;48.142;11.516;2023-04-24T08:59:04;12.10;99.90
1806;DHT22;901;48.142;11.516;2023-04-24T09:01:32;11.90;99.90
1806;DHT22;901;48.142;11.516;2023-04-24T09:04:00;11.90;99.90
1806;DHT22;901;48.142;11.516;2023-04-24T09:06:30;11.80;99.90
1806;DHT22;901;48.142;11.516;2023-04-24T09:09:00;11.80;99.90
1806;DHT22;901;48.142;11.516;2023-04-24T09:11:28;11.70;99.90
1806;DHT22;901;48.142;11.516;2023-04-24T09:13:56;11.60;99.90
1806;DHT22;901;48.142;11.516;2023-04-24T09:16:25;11.60;99.90
1806;DHT22;901;48.142;11.516;2023-04-24T09:18:52;11.80;99.90
1806;DHT22;901;48.142;11.516;2023-04-24T09:21:20;12.00;99.90
1806;DHT22;901;48.142;11.516;2023-04-24T09:23:57;12.10;99.90
1806;DHT22;901;48.142;11.516;2023-04-24T09:26:24;12.50;99.90
1806;DHT22;901;48.142;11.516;2023-04-24T09:28:53;12.70;99.90
1806;DHT22;901;48.142;11.516;2023-04-24T09:31:20;12.90;99.90
1806;DHT22;901;48.142;11.516;2023-04-24T09:33:54;13.00;99.90
1806;DHT22;901;48.142;11.516;2023-04-24T09:36:27;13.10;99.90
1806;DHT22;901;48.142;11.516;2023-04-24T09:38:58;13.30;99.90
1806;DHT22;901;48.142;11.516;2023-04-24T09:41:25;13.50;99.90
1806;DHT22;901;48.142;11.516;2023-04-24T09:43:53;13.60;99.90
1806;DHT22;901;48.142;11.516;2023-04-24T09:46:21;13.80;99.90
1806;DHT22;901;48.142;11.516;2023-04-24T09:48:48;13.90;99.90
1806;DHT22;901;48.142;11.516;2023-04-24T09:51:14;14.00;99.90
1806;DHT22;901;48.142;11.516;2023-04-24T09:53:46;14.10;99.90
1806;DHT22;901;48.142;11.516;2023-04-24T09:56:14;14.20;99.90
1806;DHT22;901;48.142;11.516;2023-04-24T09:58:41;14.40;99.90
1806;DHT22;901;48.142;11.516;2023-04-24T10:01:08;14.50;99.90
1806;DHT22;901;48.142;11.516;2023-04-24T10:03:35;14.70;99.90
1806;DHT22;901;48.142;11.516;2023-04-24T10:06:03;14.80;99.90
1806;DHT22;901;48.142;11.516;2023-04-24T10:08:34;15.00;99.90
1806;DHT22;901;48.142;11.516;2023-04-24T10:11:02;15.20;99.90
1806;DHT22;901;48.142;11.516;2023-04-24T10:13:30;15.30;99.90
1806;DHT22;901;48.142;11.516;2023-04-24T10:16:00;15.50;99.90
1806;DHT22;901;48.142;11.516;2023-04-24T10:18:27;15.30;99.90
1806;DHT22;901;48.142;11.516;2023-04-24T10:20:54;15.10;99.90
1806;DHT22;901;48.142;11.516;2023-04-24T10:23:22;15.10;99.90
1806;DHT22;901;48.142;11.516;2023-04-24T10:25:49;15.30;99.90
1806;DHT22;901;48.142;11.516;2023-04-24T10:28:17;15.40;99.90
1806;DHT22;901;48.142;11.516;2023-04-24T10:30:47;15.40;99.90
1806;DHT22;901;48.142;11.516;2023-04-24T10:33:16;15.40;99.90
1806;DHT22;901;48.142;11.516;2023-04-24T10:35:46;15.60;99.90
1806;DHT22;901;48.142;11.516;2023-04-24T10:38:22;15.80;99.90
1806;DHT22;901;48.142;11.516;2023-04-24T10:40:50;15.50;99.90
1806;DHT22;901;48.142;11.516;2023-04-24T10:43:18;15.30;99.90
1806;DHT22;901;48.142;11.516;2023-04-24T10:46:03;15.10;99.90
1806;DHT22;901;48.142;11.516;2023-04-24T10:48:30;14.90;99.90
1806;DHT22;901;48.142;11.516;2023-04-24T10:50:58;14.40;99.90
1806;DHT22;901;48.142;11.516;2023-04-24T10:53:28;13.10;99.90
1806;DHT22;901;48.142;11.516;2023-04-24T10:55:58;11.80;99.90
1806;DHT22;901;48.142;11.516;2023-04-24T10:58:36;11.40;99.90
1806;DHT22;901;48.142;11.516;2023-04-24T11:01:05;11.30;99.90
1806;DHT22;901;48.142;11.516;2023-04-24T11:03:33;11.30;99.90
1806;DHT22;901;48.142;11.516;2023-04-24T11:06:02;11.30;99.90
1806;DHT22;901;48.142;11.516;2023-04-24T11:08:31;11.60;99.90
1806;DHT22;901;48.142;11.516;2023-04-24T11:11:02;11.90;99.90
1806;DHT22;901;48.142;11.516;2023-04-24T11:14:03;12.40;99.90
1806;DHT22;901;48.142;11.516;2023-04-24T11:16:34;12.90;99.90
1806;DHT22;901;48.142;11.516;2023-04-24T11:19:03;13.30;99.90
1806;DHT22;901;48.142;11.516;2023-04-24T11:21:41;13.50;99.90
1806;DHT22;901;48.142;11.516;2023-04-24T11:24:29;13.70;99.90
1806;DHT22;901;48.142;11.516;2023-04-24T11:26:58;13.80;99.90
1806;DHT22;901;48.142;11.516;2023-04-24T11:29:40;13.80;99.90
1806;DHT22;901;48.142;11.516;2023-04-24T11:32:23;13.90;99.90
1806;DHT22;901;48.142;11.516;2023-04-24T11:34:52;14.10;99.90
1806;DHT22;901;48.142;11.516;2023-04-24T11:37:19;14.10;99.90
1806;DHT22;901;48.142;11.516;2023-04-24T11:39:45;13.80;99.90
1806;DHT22;901;48.142;11.516;2023-04-24T11:42:14;13.50;99.90
1806;DHT22;901;48.142;11.516;2023-04-24T11:44:42;13.50;99.90
1806;DHT22;901;48.142;11.516;2023-04-24T11:47:09;13.50;99.90
1806;DHT22;901;48.142;11.516;2023-04-24T11:49:38;13.60;99.90
1806;DHT22;901;48.142;11.516;2023-04-24T11:52:05;13.90;99.90
1806;DHT22;901;48.142;11.516;2023-04-24T11:54:32;14.10;99.90
1806;DHT22;901;48.142;11.516;2023-04-24T11:56:59;14.10;99.90
1806;DHT22;901;48.142;11.516;2023-04-24T11:59:26;14.10;99.90
1806;DHT22;901;48.142;11.516;2023-04-24T12:01:52;14.00;99.90
1806;DHT22;901;48.142;11.516;2023-04-24T12:04:19;14.00;99.90
1806;DHT22;901;48.142;11.516;2023-04-24T12:07:08;14.10;99.90
1806;DHT22;901;48.142;11.516;2023-04-24T12:09:42;14.30;99.90
1806;DHT22;901;48.142;11.516;2023-04-24T12:12:09;14.30;99.90
1806;DHT22;901;48.142;11.516;2023-04-24T12:14:48;14.40;99.90
1806;DHT22;901;48.142;11.516;2023-04-24T12:17:16;14.50;99.90
1806;DHT22;901;48.142;11.516;2023-04-24T12:19:46;14.70;99.90
1806;DHT22;901;48.142;11.516;2023-04-24T12:22:14;14.90;99.90
1806;DHT22;901;48.142;11.516;2023-04-24T12:24:58;15.00;99.90
1806;DHT22;901;48.142;11.516;2023-04-24T12:27:26;14.70;99.90
1806;DHT22;901;48.142;11.516;2023-04-24T12:29:55;14.70;99.90
1806;DHT22;901;48.142;11.516;2023-04-24T12:32:22;14.40;99.90
1806;DHT22;901;48.142;11.516;2023-04-24T12:34:50;14.30;99.90
1806;DHT22;901;48.142;11.516;2023-04-24T12:37:19;14.30;99.90
1806;DHT22;901;48.142;11.516;2023-04-24T12:40:01;14.30;99.90
1806;DHT22;901;48.142;11.516;2023-04-24T12:42:29;14.40;99.90
1806;DHT22;901;48.142;11.516;2023-04-24T12:44:57;14.60;99.90
1806;DHT22;901;48.142;11.516;2023-04-24T12:47:25;14.80;99.90
1806;DHT22;901;48.142;11.516;2023-04-24T12:49:52;14.80;99.90
1806;DHT22;901;48.142;11.516;2023-04-24T12:52:22;15.00;99.90
1806;DHT22;901;48.142;11.516;2023-04-24T12:54:49;15.40;99.90
1806;DHT22;901;48.142;11.516;2023-04-24T12:57:16;15.70;99.90
1806;DHT22;901;48.142;11.516;2023-04-24T12:59:43;15.90;99.90
1806;DHT22;901;48.142;11.516;2023-04-24T13:02:10;15.80;99.90
1806;DHT22;901;48.142;11.516;2023-04-24T13:04:37;16.00;99.90
1806;DHT22;901;48.142;11.516;2023-04-24T13:07:05;15.90;99.90
1806;DHT22;901;48.142;11.516;2023-04-24T13:09:34;16.00;99.90
1806;DHT22;901;48.142;11.516;2023-04-24T13:12:01;15.70;99.90
1806;DHT22;901;48.142;11.516;2023-04-24T13:14:28;15.20;99.90
1806;DHT22;901;48.142;11.516;2023-04-24T13:16:55;14.30;99.90
1806;DHT22;901;48.142;11.516;2023-04-24T13:19:23;14.20;99.90
1806;DHT22;901;48.142;11.516;2023-04-24T13:21:50;14.20;99.90
1806;DHT22;901;48.142;11.516;2023-04-24T13:24:17;14.10;99.90
1806;DHT22;901;48.142;11.516;2023-04-24T13:26:45;14.10;99.90
1806;DHT22;901;48.142;11.516;2023-04-24T13:29:12;14.10;99.90
1806;DHT22;901;48.142;11.516;2023-04-24T13:31:38;14.20;99.90
1806;DHT22;901;48.142;11.516;2023-04-24T13:34:05;14.50;99.90
1806;DHT22;901;48.142;11.516;2023-04-24T13:36:32;14.80;99.90
1806;DHT22;901;48.142;11.516;2023-04-24T13:38:59;14.70;99.90
1806;DHT22;901;48.142;11.516;2023-04-24T13:41:26;14.80;99.90
1806;DHT22;901;48.142;11.516;2023-04-24T13:43:54;14.80;99.90
1806;DHT22;901;48.142;11.516;2023-04-24T13:46:21;14.90;99.90
1806;DHT22;901;48.142;11.516;2023-04-24T13:48:48;15.00;99.90
1806;DHT22;901;48.142;11.516;2023-04-24T13:51:15;15.20;99.90
1806;DHT22;901;48.142;11.516;2023-04-24T13:53:41;15.20;99.90
1806;DHT22;901;48.142;11.516;2023-04-24T13:56:09;15.00;99.90
1806;DHT22;901;48.142;11.516;2023-04-24T13:58:36;14.70;99.90
1806;DHT22;901;48.142;11.516;2023-04-24T14:01:04;14.60;99.90
1806;DHT22;901;48.142;11.516;2023-04-24T14:03:32;14.60;99.90
1806;DHT22;901;48.142;11.516;2023-04-24T14:05:59;14.70;99.90
1806;DHT22;901;48.142;11.516;2023-04-24T14:08:26;14.90;99.90
1806;DHT22;901;48.142;11.516;2023-04-24T14:10:53;15.30;99.90
1806;DHT22;901;48.142;11.516;2023-04-24T14:13:20;15.30;99.90
1806;DHT22;901;48.142;11.516;2023-04-24T14:15:47;14.80;99.90
1806;DHT22;901;48.142;11.516;2023-04-24T14:18:15;14.30;99.90
1806;DHT22;901;48.142;11.516;2023-04-24T14:20:42;14.10;99.90
1806;DHT22;901;48.142;11.516;2023-04-24T14:23:09;14.30;99.90
1806;DHT22;901;48.142;11.516;2023-04-24T14:25:36;14.60;99.90
1806;DHT22;901;48.142;11.516;2023-04-24T14:28:03;14.70;99.90
1806;DHT22;901;48.142;11.516;2023-04-24T14:30:30;14.70;99.90
1806;DHT22;901;48.142;11.516;2023-04-24T14:32:57;14.80;99.90
1806;DHT22;901;48.142;11.516;2023-04-24T14:35:25;14.90;99.90
1806;DHT22;901;48.142;11.516;2023-04-24T14:37:51;14.90;99.90
1806;DHT22;901;48.142;11.516;2023-04-24T14:40:18;14.60;99.90
1806;DHT22;901;48.142;11.516;2023-04-24T14:42:45;14.30;99.90
1806;DHT22;901;48.142;11.516;2023-04-24T14:45:12;14.30;99.90
1806;DHT22;901;48.142;11.516;2023-04-24T14:47:39;14.20;99.90
1806;DHT22;901;48.142;11.516;2023-04-24T14:50:07;14.20;99.90
1806;DHT22;901;48.142;11.516;2023-04-24T14:52:35;14.20;99.90
1806;DHT22;901;48.142;11.516;2023-04-24T14:55:03;14.00;99.90
1806;DHT22;901;48.142;11.516;2023-04-24T14:57:30;14.00;99.90
1806;DHT22;901;48.142;11.516;2023-04-24T14:59:57;13.90;99.90
1806;DHT22;901;48.142;11.516;2023-04-24T15:02:24;14.10;99.90
1806;DHT22;901;48.142;11.516;2023-04-24T15:04:50;14.30;99.90
1806;DHT22;901;48.142;11.516;2023-04-24T15:07:17;14.40;99.90
1806;DHT22;901;48.142;11.516;2023-04-24T15:09:45;14.40;99.90
1806;DHT22;901;48.142;11.516;2023-04-24T15:12:12;13.40;99.90
1806;DHT22;901;48.142;11.516;2023-04-24T15:14:39;13.90;99.90
1806;DHT22;901;48.142;11.516;2023-04-24T15:17:06;14.00;99.90
1806;DHT22;901;48.142;11.516;2023-04-24T15:19:33;14.10;99.90
1806;DHT22;901;48.142;11.516;2023-04-24T15:22:00;14.20;99.90
1806;DHT22;901;48.142;11.516;2023-04-24T15:24:27;14.30;99.90
1806;DHT22;901;48.142;11.516;2023-04-24T15:26:55;14.40;99.90
1806;DHT22;901;48.142;11.516;2023-04-24T15:29:22;14.40;99.90
1806;DHT22;901;48.142;11.516;2023-04-24T15:31:50;14.40;99.90
1806;DHT22;901;48.142;11.516;2023-04-24T15:34:17;14.50;99.90
1806;DHT22;901;48.142;11.516;2023-04-24T15:36:44;14.50;99.90
1806;DHT22;901;48.142;11.516;2023-04-24T15:39:11;14.60;99.90
1806;DHT22;901;48.142;11.516;2023-04-24T15:41:38;14.70;99.90
1806;DHT22;901;48.142;11.516;2023-04-24T15:44:06;14.90;99.90
1806;DHT22;901;48.142;11.516;2023-04-24T15:46:34;14.80;99.90
1806;DHT22;901;48.142;11.516;2023-04-24T15:49:01;14.70;99.90
1806;DHT22;901;48.142;11.516;2023-04-24T15:51:28;14.40;99.90
1806;DHT22;901;48.142;11.516;2023-04-24T15:53:56;14.00;99.90
1806;DHT22;901;48.142;11.516;2023-04-24T15:56:22;13.70;99.90
1806;DHT22;901;48.142;11.516;2023-04-24T15:58:49;13.70;99.90
1806;DHT22;901;48.142;11.516;2023-04-24T16:01:17;13.80;99.90
1806;DHT22;901;48.142;11.516;2023-04-24T16:03:44;13.70;99.90
1806;DHT22;901;48.142;11.516;2023-04-24T16:06:11;13.60;99.90